Time;durP1;ratioP1;P1;durP2;ratioP2;P2;SDS_P1;SDS_P2;PMS_P1;PMS_P2;Temp;Humidity;BMP_temperature;BMP_pressure;BME280_temperature;BME280_humidity;BME280_pressure;Samples;Min_cycle;Max_cycle;Signal;HPM_P1;HPM_P2
2020/12/01 00:01:32;;;;;;;47.75;31.00;;;3.00;99.90;;;;;;5015593;28;20025;-86
2020/12/01 00:03:58;;;;;;;46.55;27.58;;;3.00;99.90;;;;;;5026761;28;20057;-86
2020/12/01 00:06:24;;;;;;;40.55;25.27;;;3.00;99.90;;;;;;5011559;28;20054;-84
2020/12/01 00:08:50;;;;;;;40.55;25.48;;;3.00;99.90;;;;;;5020809;28;20017;-85
2020/12/01 00:11:16;;;;;;;39.70;25.15;;;3.00;99.90;;;;;;5022282;28;20112;-83
2020/12/01 00:13:42;;;;;;;41.42;25.20;;;2.90;99.90;;;;;;5016979;28;20024;-83
2020/12/01 00:16:12;;;;;;;42.00;26.38;;;3.00;99.90;;;;;;5023525;28;20022;-85
2020/12/01 00:18:44;;;;;;;41.17;26.05;;;2.90;99.90;;;;;;5023098;28;20018;-83
2020/12/01 00:21:15;;;;;;;42.90;26.30;;;3.00;99.90;;;;;;5026325;28;20075;-83
2020/12/01 00:23:42;;;;;;;42.03;25.83;;;2.90;99.90;;;;;;5023668;28;20478;-83
2020/12/01 00:26:08;;;;;;;43.25;28.05;;;2.90;99.90;;;;;;5012653;28;20372;-84
2020/12/01 00:28:34;;;;;;;44.50;27.23;;;2.80;99.90;;;;;;5028758;28;20084;-83
2020/12/01 00:31:00;;;;;;;42.65;25.88;;;2.80;99.90;;;;;;5022022;28;20026;-83
2020/12/01 00:33:26;;;;;;;41.58;26.70;;;2.90;99.90;;;;;;5012532;28;20060;-83
2020/12/01 00:35:53;;;;;;;40.88;26.38;;;2.90;99.90;;;;;;5017140;28;20048;-83
2020/12/01 00:38:20;;;;;;;40.83;25.10;;;3.00;99.90;;;;;;5017239;28;20105;-84
2020/12/01 00:40:47;;;;;;;41.28;25.77;;;2.80;99.90;;;;;;5031841;28;20024;-84
2020/12/01 00:43:14;;;;;;;40.38;25.35;;;2.80;99.90;;;;;;5031699;28;20428;-84
2020/12/01 00:45:40;;;;;;;43.03;25.98;;;2.90;99.90;;;;;;5032335;28;20438;-84
2020/12/01 00:48:05;;;;;;;43.35;26.50;;;3.00;99.90;;;;;;5031046;28;20109;-83
2020/12/01 00:50:31;;;;;;;38.40;24.25;;;2.90;99.90;;;;;;5030785;28;20033;-84
2020/12/01 00:52:57;;;;;;;40.22;24.80;;;2.90;99.90;;;;;;5012015;28;20479;-83
2020/12/01 00:55:22;;;;;;;38.97;24.27;;;3.00;99.90;;;;;;5015650;28;20087;-83
2020/12/01 00:57:48;;;;;;;40.45;25.02;;;3.00;99.90;;;;;;5021822;28;20023;-84
2020/12/01 01:00:17;;;;;;;42.38;25.48;;;2.90;99.90;;;;;;5011331;28;20022;-83
2020/12/01 01:02:43;;;;;;;40.30;25.27;;;3.00;99.90;;;;;;5018610;28;20040;-83
2020/12/01 01:05:08;;;;;;;43.22;26.67;;;3.40;99.90;;;;;;5030375;28;20037;-83
2020/12/01 01:07:34;;;;;;;46.58;27.70;;;3.00;99.90;;;;;;5015556;28;20029;-83
2020/12/01 01:09:59;;;;;;;42.63;26.45;;;2.90;99.90;;;;;;5011245;28;20034;-83
2020/12/01 01:12:25;;;;;;;43.53;26.65;;;2.80;99.90;;;;;;5018583;28;20076;-83
2020/12/01 01:14:51;;;;;;;42.10;26.70;;;2.80;99.90;;;;;;5027335;28;20029;-83
2020/12/01 01:17:16;;;;;;;42.95;26.90;;;2.80;99.90;;;;;;5020831;28;20049;-83
2020/12/01 01:19:42;;;;;;;41.38;25.35;;;3.00;99.90;;;;;;5023248;28;20495;-83
2020/12/01 01:22:08;;;;;;;40.20;25.30;;;3.60;99.90;;;;;;5012395;28;20022;-83
2020/12/01 01:24:33;;;;;;;44.15;25.13;;;3.00;99.90;;;;;;5012137;28;20029;-83
2020/12/01 01:26:59;;;;;;;41.33;25.83;;;3.00;99.90;;;;;;5026687;28;20458;-84
2020/12/01 01:29:25;;;;;;;42.78;26.17;;;3.00;99.90;;;;;;5015355;28;20393;-83
2020/12/01 01:31:53;;;;;;;39.00;23.70;;;3.00;99.90;;;;;;5030657;28;20156;-83
2020/12/01 01:34:19;;;;;;;41.25;25.10;;;3.10;99.90;;;;;;5029945;28;20050;-83
2020/12/01 01:36:45;;;;;;;40.85;25.60;;;3.10;99.90;;;;;;5024759;28;20409;-83
2020/12/01 01:39:10;;;;;;;36.40;24.30;;;3.20;99.90;;;;;;5031812;28;20025;-84
2020/12/01 01:41:38;;;;;;;40.30;26.25;;;3.30;99.90;;;;;;5022118;28;20573;-83
2020/12/01 01:44:26;;;;;;;40.65;25.88;;;3.30;99.90;;;;;;5025575;28;20038;-83
2020/12/01 01:46:55;;;;;;;37.17;23.80;;;3.80;99.90;;;;;;5032008;28;20025;-83
2020/12/01 01:49:26;;;;;;;36.08;24.30;;;3.30;99.90;;;;;;5020387;28;20108;-83
2020/12/01 01:51:57;;;;;;;42.13;24.33;;;3.30;99.90;;;;;;5015315;28;20022;-83
2020/12/01 01:54:25;;;;;;;38.83;25.27;;;3.30;99.90;;;;;;5022743;28;20029;-83
2020/12/01 01:56:56;;;;;;;39.40;24.95;;;3.80;99.90;;;;;;5033981;28;20026;-83
2020/12/01 01:59:23;;;;;;;41.30;25.45;;;3.50;99.90;;;;;;5035109;28;20025;-84
2020/12/01 02:01:51;;;;;;;40.00;25.48;;;3.50;99.90;;;;;;5025364;28;20466;-83
2020/12/01 02:04:17;;;;;;;40.95;25.33;;;3.40;99.90;;;;;;5020486;28;20084;-83
2020/12/01 02:06:54;;;;;;;39.20;25.23;;;3.50;99.90;;;;;;5026170;28;20025;-84
2020/12/01 02:09:31;;;;;;;39.28;24.45;;;3.60;99.90;;;;;;5034659;28;20104;-83
2020/12/01 02:11:59;;;;;;;44.10;25.70;;;3.60;99.90;;;;;;5033133;28;20033;-84
2020/12/01 02:14:31;;;;;;;41.10;25.13;;;3.60;99.90;;;;;;5024141;28;20053;-83
2020/12/01 02:17:29;;;;;;;36.05;24.85;;;3.90;99.90;;;;;;5023733;28;20019;-84
2020/12/01 02:19:58;;;;;;;39.28;25.63;;;3.70;99.90;;;;;;5022720;28;20014;-84
2020/12/01 02:22:26;;;;;;;39.42;24.35;;;3.70;99.90;;;;;;5015379;28;20026;-83
2020/12/01 02:24:53;;;;;;;44.22;25.85;;;3.60;99.90;;;;;;5017365;28;20044;-83
2020/12/01 02:27:23;;;;;;;44.35;26.30;;;3.40;99.90;;;;;;5018159;28;20049;-83
2020/12/01 02:29:52;;;;;;;42.78;27.58;;;3.30;99.90;;;;;;5017870;28;20040;-83
2020/12/01 02:32:19;;;;;;;39.53;24.63;;;3.40;99.90;;;;;;5034465;28;20024;-83
2020/12/01 02:34:47;;;;;;;42.58;27.20;;;3.40;99.90;;;;;;5032603;28;20046;-84
2020/12/01 02:37:16;;;;;;;55.60;30.83;;;3.50;99.90;;;;;;5016366;28;20026;-83
2020/12/01 02:39:41;;;;;;;44.45;26.35;;;3.60;99.90;;;;;;5014724;28;20060;-84
2020/12/01 02:42:11;;;;;;;40.75;26.40;;;3.60;99.90;;;;;;5014869;28;20459;-84
2020/12/01 02:44:37;;;;;;;41.80;25.40;;;3.60;99.90;;;;;;5021559;28;20048;-84
2020/12/01 02:47:04;;;;;;;42.97;27.10;;;3.60;99.90;;;;;;5034387;28;20108;-83
2020/12/01 02:49:34;;;;;;;40.33;25.08;;;3.70;99.90;;;;;;5032237;28;20048;-84
2020/12/01 02:52:00;;;;;;;37.50;25.13;;;3.70;99.90;;;;;;5033012;28;20125;-83
2020/12/01 02:54:25;;;;;;;42.25;26.08;;;3.70;99.90;;;;;;5016993;28;20510;-83
2020/12/01 02:56:51;;;;;;;41.58;26.00;;;3.60;99.90;;;;;;5028599;28;20021;-84
2020/12/01 02:59:17;;;;;;;42.15;25.33;;;3.60;99.90;;;;;;5021189;28;20517;-83
2020/12/01 03:01:44;;;;;;;42.08;26.85;;;3.40;99.90;;;;;;5015052;28;20037;-83
2020/12/01 03:04:10;;;;;;;42.63;25.67;;;3.80;99.90;;;;;;5014255;28;20049;-83
2020/12/01 03:06:36;;;;;;;41.60;25.08;;;3.20;99.90;;;;;;5025770;28;20103;-84
2020/12/01 03:09:05;;;;;;;41.05;26.95;;;3.20;99.90;;;;;;5031558;28;20474;-83
2020/12/01 03:11:30;;;;;;;42.33;26.88;;;3.30;99.90;;;;;;5032710;28;20025;-84
2020/12/01 03:13:56;;;;;;;41.05;26.67;;;3.30;99.90;;;;;;5031335;28;20521;-83
2020/12/01 03:16:22;;;;;;;42.55;26.35;;;3.50;99.90;;;;;;5021312;28;20022;-84
2020/12/01 03:18:47;;;;;;;42.28;26.33;;;4.00;99.90;;;;;;5015035;28;20034;-83
2020/12/01 03:21:15;;;;;;;42.08;25.25;;;3.60;99.90;;;;;;5017631;28;20382;-84
2020/12/01 03:23:42;;;;;;;40.72;25.75;;;3.90;99.90;;;;;;5027635;28;20502;-84
2020/12/01 03:26:11;;;;;;;38.92;24.58;;;3.70;99.90;;;;;;5028036;28;20393;-84
2020/12/01 03:28:37;;;;;;;36.95;24.42;;;3.60;99.90;;;;;;5014109;28;20452;-83
2020/12/01 03:31:03;;;;;;;41.10;25.13;;;3.60;99.90;;;;;;5026419;28;20029;-84
2020/12/01 03:33:29;;;;;;;39.88;25.15;;;3.70;99.90;;;;;;5032389;28;20045;-84
2020/12/01 03:35:55;;;;;;;40.80;25.15;;;3.60;99.90;;;;;;5031262;28;20029;-84
2020/12/01 03:38:21;;;;;;;40.63;25.75;;;3.50;99.90;;;;;;5032006;28;20032;-84
2020/12/01 03:40:47;;;;;;;38.35;24.70;;;3.50;99.90;;;;;;5014966;28;20018;-84
2020/12/01 03:43:13;;;;;;;42.65;25.75;;;3.60;99.90;;;;;;5020734;28;20040;-84
2020/12/01 03:45:39;;;;;;;41.47;24.83;;;3.70;99.90;;;;;;5012045;28;20026;-84
2020/12/01 03:48:05;;;;;;;40.50;24.85;;;4.30;99.90;;;;;;5025434;28;20025;-84
2020/12/01 03:50:31;;;;;;;39.28;25.92;;;3.80;99.90;;;;;;5012876;28;20037;-84
2020/12/01 03:52:58;;;;;;;42.30;26.00;;;4.10;99.90;;;;;;5013419;28;20068;-84
2020/12/01 03:55:24;;;;;;;40.88;25.27;;;3.80;99.90;;;;;;5027435;28;20505;-84
2020/12/01 03:57:51;;;;;;;44.13;26.45;;;4.00;99.90;;;;;;5031102;28;20029;-84
2020/12/01 04:00:22;;;;;;;42.67;25.80;;;3.50;99.90;;;;;;5017873;28;20010;-84
2020/12/01 04:02:48;;;;;;;42.78;27.00;;;3.50;99.90;;;;;;5031249;28;20485;-84
2020/12/01 04:05:16;;;;;;;43.30;26.85;;;3.90;99.90;;;;;;5025460;28;20478;-85
2020/12/01 04:07:42;;;;;;;48.15;27.48;;;3.60;99.90;;;;;;5025852;28;20485;-85
2020/12/01 04:10:10;;;;;;;44.50;26.83;;;4.10;99.90;;;;;;5017523;28;20029;-85
2020/12/01 04:12:35;;;;;;;40.70;26.10;;;3.40;99.90;;;;;;5014644;28;20497;-84
2020/12/01 04:15:01;;;;;;;43.65;26.50;;;3.50;99.90;;;;;;5016618;28;20025;-85
2020/12/01 04:17:27;;;;;;;43.05;26.27;;;3.60;99.90;;;;;;5022709;28;20072;-85
2020/12/01 04:19:53;;;;;;;44.10;26.25;;;3.60;99.90;;;;;;5013123;28;20537;-85
2020/12/01 04:22:19;;;;;;;42.15;25.80;;;3.60;99.90;;;;;;5012770;28;20054;-85
2020/12/01 04:24:44;;;;;;;45.67;26.85;;;3.50;99.90;;;;;;5025165;28;20067;-85
2020/12/01 04:27:12;;;;;;;44.22;25.65;;;3.60;99.90;;;;;;5031557;28;20038;-84
2020/12/01 04:29:38;;;;;;;45.90;26.67;;;3.60;99.90;;;;;;5017029;28;20026;-85
2020/12/01 04:32:04;;;;;;;43.47;26.40;;;3.70;99.90;;;;;;5011682;28;20509;-85
2020/12/01 04:34:30;;;;;;;41.53;25.88;;;3.70;99.90;;;;;;5029681;28;20041;-84
2020/12/01 04:36:56;;;;;;;41.38;25.40;;;3.70;99.90;;;;;;5018638;28;20030;-84
2020/12/01 04:39:22;;;;;;;46.58;26.25;;;3.50;99.90;;;;;;5012661;28;20018;-85
2020/12/01 04:41:48;;;;;;;40.30;25.42;;;3.40;99.90;;;;;;5019563;28;20017;-85
2020/12/01 04:44:22;;;;;;;38.30;23.30;;;3.40;99.90;;;;;;5030192;28;20033;-85
2020/12/01 04:46:50;;;;;;;41.60;25.98;;;3.40;99.90;;;;;;5025848;28;20025;-85
2020/12/01 04:49:22;;;;;;;43.20;25.52;;;3.40;99.90;;;;;;5031540;28;20025;-85
2020/12/01 04:52:25;;;;;;;36.80;23.58;;;3.50;99.90;;;;;;5013492;28;20061;-84
2020/12/01 04:54:51;;;;;;;46.20;26.35;;;3.50;99.90;;;;;;5015349;28;20033;-84
2020/12/01 04:57:35;;;;;;;45.05;26.77;;;3.60;99.90;;;;;;5025701;28;20409;-85
2020/12/01 05:00:16;;;;;;;42.30;25.67;;;3.80;99.90;;;;;;5017045;28;20022;-85
2020/12/01 05:03:23;;;;;;;37.55;23.83;;;3.80;99.90;;;;;;5018410;28;20053;-85
2020/12/01 05:08:35;;;;;;;41.65;24.13;;;3.70;99.90;;;;;;5031855;28;20044;-85
2020/12/01 05:11:24;;;;;;;40.15;24.70;;;3.80;99.90;;;;;;5018424;28;20045;-84
2020/12/01 05:14:05;;;;;;;37.80;24.05;;;3.80;99.90;;;;;;5022703;28;20167;-84
2020/12/01 05:16:51;;;;;;;39.00;25.17;;;3.90;99.90;;;;;;5023316;28;20046;-84
2020/12/01 05:19:39;;;;;;;39.58;24.38;;;3.90;99.90;;;;;;5016453;28;20034;-85
2020/12/01 05:22:05;;;;;;;38.72;23.50;;;3.90;99.90;;;;;;5029453;28;20044;-85
2020/12/01 05:24:38;;;;;;;39.92;23.85;;;4.00;99.90;;;;;;5031933;28;20022;-84
2020/12/01 05:27:04;;;;;;;45.03;24.38;;;4.10;99.90;;;;;;5035139;28;20033;-84
2020/12/01 05:29:30;;;;;;;36.92;22.27;;;4.10;99.90;;;;;;5026894;28;20029;-84
2020/12/01 05:31:56;;;;;;;36.53;23.20;;;4.00;99.90;;;;;;5029323;28;20105;-84
2020/12/01 05:34:22;;;;;;;37.42;23.50;;;4.10;99.90;;;;;;5032237;28;20128;-85
2020/12/01 05:36:48;;;;;;;39.72;24.67;;;4.10;99.90;;;;;;5025626;28;20128;-85
2020/12/01 05:39:18;;;;;;;38.78;24.17;;;4.20;99.90;;;;;;5025359;28;20031;-85
2020/12/01 05:41:48;;;;;;;43.03;23.73;;;4.20;99.90;;;;;;5015847;28;20022;-85
2020/12/01 05:44:26;;;;;;;40.53;23.25;;;4.20;99.90;;;;;;5016143;28;20375;-84
2020/12/01 05:47:09;;;;;;;42.35;23.92;;;4.20;99.90;;;;;;5023194;28;20032;-84
2020/12/01 05:49:43;;;;;;;39.35;23.75;;;4.20;99.90;;;;;;5034811;28;20034;-85
2020/12/01 05:52:14;;;;;;;41.17;24.63;;;4.30;99.90;;;;;;5027834;28;20033;-84
2020/12/01 05:54:48;;;;;;;39.10;25.10;;;4.30;99.90;;;;;;5015955;28;20040;-84
2020/12/01 05:57:23;;;;;;;38.55;23.85;;;4.20;99.90;;;;;;5014097;28;20018;-85
2020/12/01 06:00:00;;;;;;;40.20;24.27;;;4.30;99.90;;;;;;5018052;28;20030;-85
2020/12/01 06:02:54;;;;;;;38.15;23.77;;;4.90;99.90;;;;;;5034404;28;20030;-85
2020/12/01 06:05:23;;;;;;;39.67;24.85;;;4.30;99.90;;;;;;5048110;28;20040;-85
2020/12/01 06:07:50;;;;;;;42.22;26.70;;;4.40;99.90;;;;;;5051937;28;20055;-84
2020/12/01 06:10:24;;;;;;;41.53;25.67;;;4.50;99.90;;;;;;5035650;28;20037;-84
2020/12/01 06:13:09;;;;;;;40.55;24.23;;;5.00;99.90;;;;;;5035456;28;20481;-84
2020/12/01 06:15:39;;;;;;;39.15;24.80;;;4.40;99.90;;;;;;5051776;28;20513;-84
2020/12/01 06:18:30;;;;;;;39.42;23.67;;;4.80;99.90;;;;;;5032719;28;20025;-85
2020/12/01 06:21:06;;;;;;;40.20;24.30;;;4.50;99.90;;;;;;5045847;28;20040;-85
2020/12/01 06:23:53;;;;;;;41.50;24.60;;;4.40;99.90;;;;;;5050730;28;20070;-84
2020/12/01 06:26:52;;;;;;;41.15;25.63;;;4.30;99.90;;;;;;5034284;28;20021;-84
2020/12/01 06:29:55;;;;;;;41.22;24.63;;;4.20;99.90;;;;;;5034438;28;20033;-84
2020/12/01 06:32:33;;;;;;;40.72;23.75;;;4.30;99.90;;;;;;4991933;28;20461;-84
2020/12/01 06:35:19;;;;;;;48.30;29.92;;;4.30;99.90;;;;;;4992153;28;20105;-84
2020/12/01 06:38:13;;;;;;;47.72;30.65;;;4.40;99.90;;;;;;5002460;28;20030;-84
2020/12/01 06:40:42;;;;;;;44.85;29.00;;;4.40;99.90;;;;;;4986952;28;20045;-84
2020/12/01 06:43:13;;;;;;;46.45;32.75;;;4.90;99.90;;;;;;4951045;28;20039;-85
2020/12/01 06:45:45;;;;;;;43.92;27.25;;;4.90;99.90;;;;;;4967223;28;20094;-84
2020/12/01 06:48:17;;;;;;;42.13;26.35;;;4.60;99.90;;;;;;4957013;28;20034;-84
2020/12/01 06:50:51;;;;;;;44.75;26.42;;;4.50;99.90;;;;;;4956424;28;20027;-84
2020/12/01 06:53:35;;;;;;;42.85;26.15;;;4.30;99.90;;;;;;4956578;28;20038;-84
2020/12/01 06:56:07;;;;;;;44.17;25.80;;;4.10;99.90;;;;;;4977503;28;20038;-86
2020/12/01 06:58:32;;;;;;;46.42;27.45;;;4.10;99.90;;;;;;4974552;28;20104;-86
2020/12/01 07:01:23;;;;;;;41.63;25.50;;;4.20;99.90;;;;;;4971701;28;20039;-86
2020/12/01 07:04:00;;;;;;;42.50;26.27;;;3.80;99.90;;;;;;4956043;28;20023;-86
2020/12/01 07:06:25;;;;;;;42.60;27.45;;;4.20;99.90;;;;;;4991433;28;20038;-86
2020/12/01 07:08:51;;;;;;;45.67;27.25;;;3.80;99.90;;;;;;5013930;28;20068;-87
2020/12/01 07:11:33;;;;;;;48.03;27.38;;;3.90;99.90;;;;;;5022364;28;20029;-86
2020/12/01 07:14:02;;;;;;;41.95;27.38;;;4.10;99.90;;;;;;5026866;28;20049;-86
2020/12/01 07:16:43;;;;;;;45.90;27.52;;;4.00;99.90;;;;;;5021622;28;20052;-86
2020/12/01 07:19:33;;;;;;;44.97;26.40;;;4.20;99.90;;;;;;5014653;28;20025;-85
2020/12/01 07:22:10;;;;;;;45.53;28.10;;;4.20;99.90;;;;;;5047988;28;20105;-86
2020/12/01 07:24:57;;;;;;;45.83;27.50;;;4.80;99.90;;;;;;5031212;28;20528;-87
2020/12/01 07:27:53;;;;;;;45.22;27.90;;;4.30;99.90;;;;;;5019275;28;20028;-85
2020/12/01 07:30:25;;;;;;;47.35;28.65;;;4.30;99.90;;;;;;5013596;28;20064;-84
2020/12/01 07:33:04;;;;;;;48.97;27.80;;;4.20;99.90;;;;;;5027136;28;20025;-85
2020/12/01 07:35:53;;;;;;;45.00;27.98;;;4.20;99.90;;;;;;5016047;28;20037;-85
2020/12/01 07:38:30;;;;;;;51.45;28.92;;;4.20;99.90;;;;;;5033127;28;20024;-82
2020/12/01 07:41:12;;;;;;;52.53;31.35;;;4.30;99.90;;;;;;5018628;28;20013;-83
2020/12/01 07:43:38;;;;;;;46.67;27.45;;;4.30;99.90;;;;;;5020280;28;20049;-83
2020/12/01 07:46:05;;;;;;;47.22;29.63;;;4.40;99.90;;;;;;5027946;28;20493;-84
2020/12/01 07:48:31;;;;;;;47.30;28.52;;;4.60;99.90;;;;;;5019090;28;20025;-82
2020/12/01 07:51:10;;;;;;;48.50;28.88;;;4.50;99.90;;;;;;5032713;28;20045;-83
2020/12/01 07:53:42;;;;;;;48.75;30.15;;;4.60;99.90;;;;;;5026452;28;20026;-83
2020/12/01 07:56:13;;;;;;;44.97;28.15;;;4.50;99.90;;;;;;5029949;28;20030;-83
2020/12/01 07:58:38;;;;;;;45.80;27.75;;;4.50;99.90;;;;;;5033554;28;20022;-83
2020/12/01 08:01:23;;;;;;;45.05;27.83;;;4.90;99.90;;;;;;5033100;28;20395;-82
2020/12/01 08:03:48;;;;;;;51.67;29.38;;;4.90;99.90;;;;;;5013359;28;20026;-85
2020/12/01 08:06:16;;;;;;;46.83;28.88;;;5.10;99.90;;;;;;5020388;28;20079;-86
2020/12/01 08:08:44;;;;;;;51.70;30.85;;;4.50;99.90;;;;;;5022561;28;20481;-85
2020/12/01 08:11:13;;;;;;;51.05;30.70;;;5.20;99.90;;;;;;5025735;28;20040;-85
2020/12/01 08:13:39;;;;;;;49.83;30.10;;;5.00;99.90;;;;;;5025551;28;20018;-86
2020/12/01 08:16:17;;;;;;;52.67;31.73;;;4.70;99.90;;;;;;5030520;28;20049;-84
2020/12/01 08:18:49;;;;;;;50.30;29.92;;;4.70;99.90;;;;;;5017297;28;20018;-85
2020/12/01 08:21:20;;;;;;;52.42;31.48;;;5.00;99.90;;;;;;5018238;28;20029;-84
2020/12/01 08:23:47;;;;;;;54.30;31.77;;;5.00;99.90;;;;;;5022509;28;20021;-85
2020/12/01 08:26:26;;;;;;;52.28;31.25;;;4.90;99.90;;;;;;5025814;28;20072;-85
2020/12/01 08:29:13;;;;;;;45.28;29.90;;;5.00;99.90;;;;;;5029880;28;20026;-86
2020/12/01 08:31:44;;;;;;;48.25;29.70;;;4.90;99.90;;;;;;5030868;28;20065;-83
2020/12/01 08:34:33;;;;;;;46.00;28.92;;;5.00;99.90;;;;;;5019538;28;20049;-84
2020/12/01 08:37:32;;;;;;;48.70;29.02;;;4.90;99.90;;;;;;5013081;28;20029;-84
2020/12/01 08:40:15;;;;;;;49.20;29.70;;;5.00;99.90;;;;;;5021634;28;20040;-84
2020/12/01 08:43:12;;;;;;;49.35;29.95;;;4.90;99.90;;;;;;5021728;28;20025;-83
2020/12/01 08:45:41;;;;;;;51.63;29.13;;;5.30;99.90;;;;;;5016412;28;20061;-84
2020/12/01 08:48:16;;;;;;;99.72;53.10;;;5.00;99.90;;;;;;5024482;28;20109;-84
2020/12/01 08:50:42;;;;;;;67.28;40.33;;;5.10;99.90;;;;;;5016284;28;20041;-84
2020/12/01 08:53:13;;;;;;;50.53;31.27;;;5.20;99.90;;;;;;5027454;28;20470;-83
2020/12/01 08:55:41;;;;;;;44.25;28.35;;;5.20;99.90;;;;;;5025374;28;20028;-84
2020/12/01 08:58:27;;;;;;;47.63;29.17;;;5.20;99.90;;;;;;5022263;28;20408;-84
2020/12/01 09:01:06;;;;;;;72.95;38.10;;;5.20;99.90;;;;;;5017753;28;20033;-84
2020/12/01 09:03:34;;;;;;;57.78;34.47;;;5.00;99.90;;;;;;5022022;28;20133;-84
2020/12/01 09:06:01;;;;;;;48.90;29.13;;;5.00;99.90;;;;;;5024739;28;20124;-84
2020/12/01 09:08:47;;;;;;;47.40;30.00;;;5.10;99.90;;;;;;5009815;28;20050;-84
2020/12/01 09:11:41;;;;;;;57.50;34.72;;;5.10;99.90;;;;;;5020762;28;20104;-84
2020/12/01 09:22:01;;;;;;;46.53;29.85;;;5.20;99.90;;;;;;5022395;28;20105;-85
2020/12/01 09:24:28;;;;;;;60.90;34.08;;;5.20;99.90;;;;;;5020976;28;20446;-84
2020/12/01 09:27:03;;;;;;;45.35;29.13;;;5.20;99.90;;;;;;5014399;28;20482;-84
2020/12/01 09:29:30;;;;;;;55.70;33.03;;;5.20;99.90;;;;;;5022855;28;20025;-84
2020/12/01 09:31:56;;;;;;;48.53;30.52;;;5.10;99.90;;;;;;5026832;28;20676;-84
2020/12/01 09:34:22;;;;;;;72.57;42.30;;;5.10;99.90;;;;;;5014068;28;20516;-85
2020/12/01 09:36:48;;;;;;;45.65;29.13;;;5.00;99.90;;;;;;5021858;28;20022;-83
2020/12/01 09:39:13;;;;;;;55.90;33.30;;;4.90;99.90;;;;;;5020565;28;20091;-84
2020/12/01 09:41:44;;;;;;;44.05;30.00;;;5.50;99.90;;;;;;5019748;28;20474;-83
2020/12/01 09:47:03;;;;;;;42.45;26.88;;;5.40;99.90;;;;;;5026708;28;20059;-84
2020/12/01 09:49:29;;;;;;;46.70;29.02;;;5.40;99.90;;;;;;5017511;28;20116;-85
2020/12/01 09:52:34;;;;;;;42.95;27.20;;;5.40;99.90;;;;;;5017918;28;20106;-84
2020/12/01 09:57:36;;;;;;;73.03;40.55;;;5.30;99.90;;;;;;5021091;28;20497;-84
2020/12/01 10:00:27;;;;;;;52.95;32.28;;;5.50;99.90;;;;;;5015386;28;20025;-83
2020/12/01 10:11:34;;;;;;;40.78;27.20;;;5.60;99.90;;;;;;4999799;28;20035;-84
2020/12/01 10:14:09;;;;;;;44.30;28.20;;;5.60;99.90;;;;;;5010166;28;20065;-84
2020/12/01 10:33:56;;;;;;;40.47;26.70;;;5.50;99.90;;;;;;5005863;28;20052;-85
2020/12/01 10:35:19;;;;;;;45.35;27.33;;;5.40;99.90;;;;;;5001858;28;20494;-85
2020/12/01 10:37:45;;;;;;;55.92;37.65;;;5.50;99.90;;;;;;5005719;28;20027;-85
2020/12/01 10:40:11;;;;;;;40.45;25.48;;;5.40;99.90;;;;;;4987690;28;20036;-85
2020/12/01 10:42:37;;;;;;;39.88;26.13;;;5.30;99.90;;;;;;4991592;28;20035;-86
2020/12/01 10:45:03;;;;;;;54.10;36.55;;;5.30;99.90;;;;;;4985172;28;20045;-87
2020/12/01 10:47:29;;;;;;;43.72;28.17;;;5.50;99.90;;;;;;5014948;28;20474;-85
2020/12/01 10:49:54;;;;;;;42.55;27.23;;;5.60;99.90;;;;;;5025344;28;20022;-85
2020/12/01 10:52:20;;;;;;;44.53;28.67;;;5.60;99.90;;;;;;5020180;28;20025;-86
2020/12/01 10:54:46;;;;;;;58.08;38.78;;;5.70;99.90;;;;;;5026953;28;20445;-86
2020/12/01 10:57:11;;;;;;;71.32;46.55;;;5.70;99.90;;;;;;5016559;28;20021;-87
2020/12/01 10:59:37;;;;;;;39.40;26.08;;;5.60;99.90;;;;;;5022267;28;20033;-84
2020/12/01 11:02:03;;;;;;;37.55;25.90;;;5.50;99.90;;;;;;5016553;28;20037;-85
2020/12/01 11:04:29;;;;;;;40.10;25.45;;;5.50;99.90;;;;;;5017543;28;20029;-86
2020/12/01 11:06:55;;;;;;;41.28;26.90;;;5.50;99.90;;;;;;5046900;28;20032;-85
2020/12/01 11:09:20;;;;;;;38.40;25.38;;;5.60;99.90;;;;;;5019639;28;20026;-84
2020/12/01 11:11:46;;;;;;;39.55;26.30;;;5.60;99.90;;;;;;5012622;28;20033;-84
2020/12/01 11:14:12;;;;;;;42.88;26.67;;;5.80;99.90;;;;;;5025555;28;20553;-85
2020/12/01 11:16:37;;;;;;;43.35;27.90;;;6.00;99.90;;;;;;5017428;28;20060;-86
2020/12/01 11:19:04;;;;;;;43.60;28.20;;;5.80;99.90;;;;;;5012726;28;20064;-85
2020/12/01 11:21:34;;;;;;;43.90;29.42;;;6.00;99.90;;;;;;5029406;28;20025;-86
2020/12/01 11:23:59;;;;;;;36.28;24.58;;;6.20;99.90;;;;;;5024195;28;20022;-86
2020/12/01 11:26:25;;;;;;;38.22;26.48;;;6.20;99.90;;;;;;5026632;28;20029;-87
2020/12/01 11:28:51;;;;;;;40.35;26.55;;;6.30;99.90;;;;;;5032142;28;20490;-86
2020/12/01 11:31:18;;;;;;;40.67;27.17;;;6.70;99.90;;;;;;5030884;28;20057;-84
2020/12/01 11:33:54;;;;;;;38.33;25.50;;;6.70;99.90;;;;;;5031389;28;20516;-84
2020/12/01 11:36:21;;;;;;;39.80;26.70;;;7.00;99.90;;;;;;5018037;28;20402;-84
2020/12/01 11:38:47;;;;;;;37.67;24.13;;;7.60;99.90;;;;;;5014952;28;20101;-85
2020/12/01 11:41:14;;;;;;;37.85;25.58;;;7.40;99.90;;;;;;5031560;28;20104;-85
2020/12/01 11:43:40;;;;;;;41.22;26.73;;;8.10;99.90;;;;;;5014177;28;20137;-83
2020/12/01 11:46:06;;;;;;;37.47;26.33;;;8.30;99.90;;;;;;5024223;28;20061;-86
2020/12/01 11:48:32;;;;;;;38.85;26.42;;;7.80;99.90;;;;;;5014677;28;20026;-84
2020/12/01 11:50:57;;;;;;;56.85;34.35;;;7.60;99.90;;;;;;5020572;28;20152;-84
2020/12/01 11:53:23;;;;;;;50.45;31.67;;;7.70;99.90;;;;;;5022747;28;20029;-81
2020/12/01 11:55:48;;;;;;;40.17;27.02;;;7.40;99.90;;;;;;5017776;28;20083;-81
2020/12/01 11:58:14;;;;;;;43.42;29.13;;;7.10;99.90;;;;;;5021212;28;20029;-81
2020/12/01 12:00:40;;;;;;;43.15;28.67;;;7.00;99.90;;;;;;5024566;28;20024;-82
2020/12/01 12:03:06;;;;;;;44.35;30.60;;;6.80;99.90;;;;;;5026849;28;20026;-82
2020/12/01 12:05:31;;;;;;;45.13;29.63;;;6.70;99.90;;;;;;5022416;28;20018;-83
2020/12/01 12:07:57;;;;;;;37.30;26.30;;;6.70;99.90;;;;;;5020011;28;20470;-90
2020/12/01 12:10:22;;;;;;;42.33;29.23;;;6.70;99.90;;;;;;5024304;28;20458;-88
2020/12/01 12:12:49;;;;;;;45.10;30.20;;;6.60;99.90;;;;;;5022659;28;20462;-86
2020/12/01 12:15:15;;;;;;;42.03;28.60;;;6.40;99.90;;;;;;5022166;28;20018;-86
2020/12/01 12:17:41;;;;;;;51.35;32.42;;;6.30;99.90;;;;;;5024435;28;20061;-83
2020/12/01 12:20:07;;;;;;;49.90;31.73;;;6.30;99.90;;;;;;5019679;28;20429;-82
2020/12/01 12:22:32;;;;;;;47.20;29.95;;;6.40;99.90;;;;;;5018451;28;20548;-83
2020/12/01 12:24:58;;;;;;;45.67;29.42;;;6.40;99.90;;;;;;5021898;28;20029;-82
2020/12/01 12:27:24;;;;;;;44.30;29.20;;;6.40;99.90;;;;;;5024299;28;20473;-83
2020/12/01 12:29:50;;;;;;;46.85;30.98;;;6.40;99.90;;;;;;5023167;28;20101;-83
2020/12/01 12:32:15;;;;;;;48.78;31.65;;;6.70;99.90;;;;;;5022095;28;20113;-82
2020/12/01 12:34:41;;;;;;;51.00;33.80;;;6.90;99.90;;;;;;5025302;28;20053;-83
2020/12/01 12:37:07;;;;;;;46.47;30.70;;;6.90;99.90;;;;;;5021409;28;20028;-82
2020/12/01 12:39:32;;;;;;;46.90;29.13;;;6.90;99.90;;;;;;5029362;28;20041;-83
2020/12/01 12:41:58;;;;;;;41.72;28.20;;;7.20;99.90;;;;;;5024656;28;20516;-82
2020/12/01 12:44:24;;;;;;;42.10;28.52;;;7.40;99.90;;;;;;5029989;28;20060;-85
2020/12/01 12:46:49;;;;;;;42.35;29.30;;;7.10;99.90;;;;;;5028722;28;20025;-83
2020/12/01 12:49:15;;;;;;;41.78;26.88;;;7.20;99.90;;;;;;5026935;28;20024;-84
2020/12/01 12:51:41;;;;;;;38.88;26.02;;;7.50;99.90;;;;;;5021416;28;20401;-83
2020/12/01 12:54:06;;;;;;;34.50;23.35;;;7.50;99.90;;;;;;5017743;28;20567;-83
2020/12/01 12:56:32;;;;;;;36.08;23.13;;;7.60;99.90;;;;;;5023482;28;20108;-83
2020/12/01 12:59:00;;;;;;;33.67;22.98;;;7.30;99.90;;;;;;5021811;28;20036;-83
2020/12/01 13:01:26;;;;;;;33.67;22.42;;;7.40;99.90;;;;;;5017813;28;20025;-82
2020/12/01 13:03:51;;;;;;;34.53;23.05;;;7.50;99.90;;;;;;5017616;28;21138;-82
2020/12/01 13:06:17;;;;;;;33.45;22.17;;;7.50;99.90;;;;;;5023649;28;20043;-82
2020/12/01 13:08:43;;;;;;;33.20;22.55;;;7.50;99.90;;;;;;5022695;28;20437;-83
2020/12/01 13:11:09;;;;;;;47.50;32.83;;;7.20;99.90;;;;;;5026704;28;20033;-83
2020/12/01 13:13:35;;;;;;;33.50;22.35;;;7.20;99.90;;;;;;5020399;28;20030;-83
2020/12/01 13:16:01;;;;;;;49.35;29.63;;;7.20;99.90;;;;;;5017969;28;20118;-84
2020/12/01 13:18:27;;;;;;;31.63;22.33;;;7.10;99.90;;;;;;5013791;28;20490;-83
2020/12/01 13:20:53;;;;;;;94.00;47.03;;;7.10;99.90;;;;;;5018446;28;20077;-83
2020/12/01 13:23:18;;;;;;;216.40;105.15;;;7.30;99.90;;;;;;5015020;28;20026;-83
2020/12/01 13:25:44;;;;;;;56.45;33.67;;;7.30;99.90;;;;;;5015238;28;20045;-83
2020/12/01 13:28:10;;;;;;;32.65;22.60;;;7.20;99.90;;;;;;5023834;28;20076;-83
2020/12/01 13:30:36;;;;;;;35.08;22.83;;;7.30;99.90;;;;;;5020516;28;20098;-83
2020/12/01 13:33:02;;;;;;;35.88;23.25;;;7.40;99.90;;;;;;5032583;28;20032;-83